Thunder radar more information blitzortung!


Radar de pluja more information rain snow radar


Visita la nostra xarxa de llocs de meteo:

Template documentation
and downloads

And another site



No particular awareness of the weather is required.    There are no Weather-warnings

Pagina Historial Weather Underground text

Diari Resum Marc 10, 2018 Unitats:  Imperial    Mètric   Tant
« Previous Dia
SegĂźent Dia »
Diari Setmana Mensual Anual Personalitzada
  Maxima: Minima: Media:
Temperatura: TemperatureC °F 10.3 °F 14.6 °F
Punt de rosada: DewpointC °F 6.9 °F 9.1 °F
Humitat: Humidity % 45 % 72 %
Wind Speed: WindSpeedKMH mph 0.0 mph 6.6 mph
RĂ fegues de vent: WindSpeedGustKMH mph - -
Vent:- - SW
Pression baro: PressurehPa in 1002.9 in -
Precipitacions: 1.3 in    
Historical Graphs
 
 
Dades de taula per Marc 10, 2018
Temps Temperatura Punt de rosada Pression baro Vent Wind Speed RĂ fegues de vent Humitat Rainfall Rate (Hourly)
TemperatureC °F DewpointC °F PressurehPa in Calm     Humidity % HourlyPrecipMM in
00:03 11.5 °F 8.0 °F 1011.7 in SW 2.3 mph 2.3 mph 79 % 0.0 in
00:08 11.5 °F 8.0 °F 1011.7 in SW 3.7 mph 3.7 mph 79 % 0.0 in
00:13 11.5 °F 8.0 °F 1011.7 in Calm     79 % 0.0 in
00:18 11.6 °F 8.1 °F 1011.7 in SW 3.2 mph 3.2 mph 79 % 0.0 in
00:23 11.6 °F 8.1 °F 1011.7 in WSW 1.9 mph 1.9 mph 79 % 0.0 in
00:28 11.6 °F 8.1 °F 1011.7 in North 1.9 mph   79 % 0.0 in
00:33 11.7 °F 8.4 °F 1011.7 in NNE 5.6 mph 5.6 mph 80 % 0.0 in
00:38 11.7 °F 8.6 °F 1010.0 in NE 1.9 mph   81 % 0.0 in
00:43 11.7 °F 8.6 °F 1010.0 in Calm     81 % 0.0 in
00:48 11.7 °F 8.6 °F 1010.0 in Calm     81 % 0.0 in
00:53 11.7 °F 8.4 °F 1010.7 in Calm     80 % 0.0 in
00:58 11.7 °F 8.6 °F 1010.7 in Calm     81 % 0.0 in
01:03 11.6 °F 8.4 °F 1010.7 in Calm     81 % 0.0 in
01:08 11.5 °F 8.3 °F 1010.7 in Calm     81 % 0.0 in
01:13 11.5 °F 8.3 °F 1010.7 in South 1.4 mph   81 % 0.0 in
01:18 11.5 °F 8.3 °F 1010.7 in SW 2.3 mph 2.3 mph 81 % 0.0 in
01:23 11.5 °F 8.3 °F 1010.7 in Calm     81 % 0.0 in
01:28 11.5 °F 8.3 °F 1010.7 in Calm     81 % 0.0 in
01:33 11.4 °F 8.3 °F 1010.7 in SW 3.7 mph 3.7 mph 81 % 0.0 in
01:38 11.4 °F 8.3 °F 1010.0 in SSW 3.7 mph 3.7 mph 81 % 0.0 in
01:43 11.4 °F 8.3 °F 1010.0 in SW 3.7 mph 3.7 mph 81 % 0.0 in
01:48 11.3 °F 8.0 °F 1010.0 in WSW 3.7 mph 3.7 mph 80 % 0.0 in
01:53 11.4 °F 8.3 °F 1010.0 in WSW 1.9 mph   81 % 0.0 in
01:58 11.4 °F 8.4 °F 1010.0 in WSW 1.9 mph 1.9 mph 82 % 0.0 in
02:03 11.4 °F 8.3 °F 1010.0 in West 3.7 mph 3.7 mph 81 % 0.0 in
02:08 11.4 °F 8.4 °F 1010.0 in WSW 2.3 mph 2.3 mph 82 % 0.0 in
02:13 11.4 °F 8.3 °F 1010.0 in West 3.7 mph 3.7 mph 81 % 0.0 in
02:18 11.4 °F 8.4 °F 1010.0 in West 3.7 mph 3.7 mph 82 % 0.0 in
02:23 11.4 °F 8.4 °F 1010.0 in WSW 3.7 mph 3.7 mph 82 % 0.0 in
02:28 11.4 °F 8.4 °F 1010.0 in West 3.7 mph 3.7 mph 82 % 0.0 in
02:33 11.4 °F 8.4 °F 1010.0 in WNW 1.9 mph   82 % 0.0 in
02:38 11.4 °F 8.4 °F 1010.0 in NE 2.6 mph 2.6 mph 82 % 0.0 in
02:43 11.4 °F 8.6 °F 1010.0 in ENE 3.7 mph 3.7 mph 83 % 0.0 in
02:48 11.4 °F 8.6 °F 1010.0 in NNE 3.9 mph 3.9 mph 83 % 0.0 in
02:53 11.3 °F 8.5 °F 1010.0 in NE 2.3 mph 2.3 mph 83 % 0.0 in
02:58 11.3 °F 8.5 °F 1010.0 in WSW 2.3 mph 2.3 mph 83 % 0.0 in
03:03 11.3 °F 8.5 °F 1010.0 in West 1.9 mph   83 % 0.0 in
03:08 11.2 °F 8.4 °F 1010.0 in Calm     83 % 0.0 in
03:13 11.0 °F 8.1 °F 1010.0 in WSW 1.9 mph   82 % 0.0 in
03:18 11.0 °F 8.1 °F 1010.0 in SW 2.6 mph 2.6 mph 82 % 0.0 in
03:23 10.9 °F 8.1 °F 1010.0 in Calm     83 % 0.0 in
03:28 10.8 °F 8.0 °F 1010.0 in Calm     83 % 0.0 in
03:33 10.8 °F 8.0 °F 1010.0 in SW 2.6 mph 2.6 mph 83 % 0.0 in
03:38 10.6 °F 7.7 °F 1010.0 in SW 3.7 mph 3.7 mph 82 % 0.0 in
03:43 10.6 °F 7.7 °F 1010.0 in SW 3.9 mph 3.9 mph 82 % 0.0 in
03:48 10.6 °F 7.7 °F 1010.0 in SW 3.7 mph 3.7 mph 82 % 0.0 in
03:53 10.5 °F 7.7 °F 1010.0 in SW 3.9 mph 3.9 mph 83 % 0.0 in
03:58 10.5 °F 7.6 °F 1010.0 in WSW 3.7 mph 3.7 mph 82 % 0.0 in
04:03 10.6 °F 7.8 °F 1010.0 in West 1.9 mph 1.9 mph 83 % 0.0 in
04:08 10.7 °F 8.1 °F 1010.0 in West 1.9 mph   84 % 0.0 in
04:13 10.7 °F 8.1 °F 1010.0 in West 1.4 mph   84 % 0.0 in
04:18 10.7 °F 8.1 °F 1010.0 in Calm     84 % 0.0 in
04:23 10.8 °F 8.4 °F 1009.0 in Calm     85 % 0.0 in
04:28 10.8 °F 8.2 °F 1009.0 in SW 2.3 mph 2.3 mph 84 % 0.0 in
04:33 10.8 °F 8.2 °F 1009.0 in Calm     84 % 0.0 in
04:38 10.8 °F 8.4 °F 1009.0 in WSW 2.6 mph   85 % 0.0 in
04:43 10.9 °F 8.5 °F 1009.0 in SW 3.7 mph 3.7 mph 85 % 0.0 in
04:48 10.9 °F 8.3 °F 1009.0 in WSW 3.9 mph 3.9 mph 84 % 0.0 in
04:53 10.9 °F 8.3 °F 1009.0 in WSW 3.7 mph 3.7 mph 84 % 0.0 in
04:58 11.0 °F 8.4 °F 1009.0 in SW 3.7 mph 3.7 mph 84 % 0.0 in
05:03 11.1 °F 8.5 °F 1009.0 in West 3.7 mph 3.7 mph 84 % 0.0 in
05:08 11.1 °F 8.5 °F 1009.0 in SW 4.7 mph 4.7 mph 84 % 0.0 in
05:13 11.2 °F 8.4 °F 1009.0 in WSW 5.0 mph 5.0 mph 83 % 0.0 in
05:18 11.2 °F 8.6 °F 1009.0 in WSW 3.7 mph 3.7 mph 84 % 0.0 in
05:23 11.1 °F 8.5 °F 1009.0 in WSW 3.7 mph 3.7 mph 84 % 0.0 in
05:28 11.1 °F 8.5 °F 1009.0 in West 4.7 mph 4.7 mph 84 % 0.0 in
05:33 11.2 °F 8.6 °F 1009.0 in SW 1.9 mph   84 % 0.0 in
05:38 11.1 °F 8.7 °F 1009.0 in West 1.9 mph 1.9 mph 85 % 0.0 in
05:43 11.1 °F 8.5 °F 1009.0 in West 5.6 mph 5.6 mph 84 % 0.0 in
05:48 11.1 °F 8.5 °F 1009.0 in WSW 1.9 mph 2.3 mph 84 % 0.0 in
05:53 11.2 °F 8.6 °F 1010.0 in West 3.2 mph 3.2 mph 84 % 0.0 in
05:58 11.2 °F 8.6 °F 1010.0 in WSW 3.9 mph 3.9 mph 84 % 0.0 in
06:03 11.2 °F 8.6 °F 1010.0 in SW 3.7 mph 3.7 mph 84 % 0.0 in
06:08 11.2 °F 8.6 °F 1009.0 in West 3.7 mph 3.7 mph 84 % 0.0 in
06:13 11.1 °F 8.5 °F 1009.0 in WNW 5.6 mph 5.6 mph 84 % 0.0 in
06:18 11.1 °F 8.5 °F 1009.0 in WSW 5.6 mph 5.6 mph 84 % 0.0 in
06:23 11.1 °F 8.5 °F 1009.0 in West 5.0 mph 5.0 mph 84 % 0.0 in
06:28 11.0 °F 8.4 °F 1009.0 in West 7.4 mph 7.4 mph 84 % 0.0 in
06:33 11.0 °F 8.4 °F 1009.0 in West 5.6 mph 5.6 mph 84 % 0.0 in
06:38 11.0 °F 8.4 °F 1009.0 in West 7.4 mph 7.4 mph 84 % 0.0 in
06:43 10.9 °F 8.3 °F 1009.0 in WSW 5.0 mph 5.0 mph 84 % 0.0 in
06:48 10.9 °F 8.3 °F 1009.0 in West 3.7 mph 4.2 mph 84 % 0.0 in
06:53 10.8 °F 8.4 °F 1009.0 in SW 1.9 mph   85 % 0.0 in
06:58 10.8 °F 8.4 °F 1009.0 in West 5.0 mph 5.0 mph 85 % 0.0 in
07:03 10.7 °F 8.1 °F 1009.0 in WSW 5.8 mph 5.8 mph 84 % 0.0 in
07:08 10.5 °F 7.9 °F 1008.0 in SSW 1.9 mph   84 % 0.0 in
07:13 10.5 °F 8.1 °F 1008.0 in East 1.9 mph 1.9 mph 85 % 0.0 in
07:18 10.4 °F 8.0 °F 1008.0 in Calm     85 % 0.0 in
07:23 10.4 °F 8.2 °F 1009.0 in Calm     86 % 0.0 in
07:28 10.3 °F 8.1 °F 1009.0 in ENE 3.7 mph 3.7 mph 86 % 0.0 in
07:33 10.3 °F 8.1 °F 1009.0 in WNW 1.9 mph   86 % 0.0 in
07:38 10.4 °F 8.2 °F 1010.0 in WSW 3.2 mph 3.2 mph 86 % 0.0 in
07:43 10.4 °F 8.0 °F 1010.0 in WSW 3.7 mph 3.7 mph 85 % 0.0 in
07:49 10.4 °F 8.0 °F 1010.0 in WSW 1.9 mph   85 % 0.0 in
07:54 10.4 °F 8.2 °F 1009.0 in SW 1.9 mph   86 % 0.0 in
07:59 10.4 °F 8.2 °F 1009.0 in SW 2.3 mph 2.3 mph 86 % 0.0 in
08:04 10.4 °F 8.2 °F 1009.0 in SW 1.9 mph   86 % 0.0 in
08:09 10.3 °F 8.1 °F 1010.0 in WSW 3.7 mph 3.7 mph 86 % 0.0 in
08:14 10.3 °F 7.9 °F 1010.0 in WSW 3.9 mph 3.9 mph 85 % 0.0 in
08:19 10.3 °F 7.9 °F 1010.0 in WSW 1.9 mph 1.9 mph 85 % 0.0 in
08:24 10.3 °F 8.1 °F 1010.0 in Calm     86 % 0.0 in
08:29 10.4 °F 8.2 °F 1010.0 in SW 1.9 mph 1.9 mph 86 % 0.0 in
08:34 10.5 °F 8.4 °F 1010.0 in ENE 2.6 mph   87 % 0.0 in
08:39 10.6 °F 8.5 °F 1010.0 in NNE 5.6 mph 5.6 mph 87 % 0.0 in
08:44 10.6 °F 8.5 °F 1010.0 in West 3.7 mph 3.7 mph 87 % 0.0 in
08:49 10.7 °F 8.4 °F 1010.0 in Calm     86 % 0.0 in
08:54 10.8 °F 8.7 °F 1010.0 in WSW 2.6 mph   87 % 0.0 in
08:59 10.9 °F 8.7 °F 1010.0 in SW 1.9 mph   86 % 0.0 in
09:04 11.1 °F 8.8 °F 1010.0 in SSE 3.7 mph 3.7 mph 86 % 0.0 in
09:09 11.2 °F 8.9 °F 1010.0 in NNE 3.7 mph   86 % 0.0 in
09:14 11.4 °F 9.2 °F 1010.0 in ENE 3.7 mph 3.7 mph 86 % 0.0 in
09:19 11.7 °F 9.4 °F 1010.0 in SW 3.7 mph   86 % 0.0 in
09:24 11.8 °F 9.3 °F 1010.7 in WSW 3.7 mph 3.7 mph 85 % 0.0 in
09:29 12.1 °F 9.7 °F 1010.7 in WSW 5.6 mph 5.6 mph 85 % 0.0 in
09:34 12.5 °F 9.9 °F 1010.7 in WSW 4.7 mph 4.7 mph 84 % 0.0 in
09:39 13.0 °F 10.3 °F 1010.7 in WSW 3.7 mph 3.7 mph 84 % 0.0 in
09:44 13.2 °F 10.4 °F 1010.7 in SW 5.6 mph 5.6 mph 83 % 0.0 in
09:49 13.6 °F 10.8 °F 1010.7 in WSW 3.7 mph 3.7 mph 83 % 0.0 in
09:54 13.9 °F 10.9 °F 1010.0 in Calm     82 % 0.0 in
09:59 14.3 °F 11.1 °F 1010.0 in West 1.9 mph 1.9 mph 81 % 0.0 in
10:04 14.5 °F 11.3 °F 1010.0 in WSW 4.2 mph 4.2 mph 81 % 0.0 in
10:09 14.6 °F 11.2 °F 1010.7 in West 7.6 mph 7.6 mph 80 % 0.0 in
10:14 14.7 °F 11.1 °F 1010.7 in SW 7.4 mph 7.4 mph 79 % 0.0 in
10:19 15.1 °F 11.5 °F 1010.7 in WSW 4.2 mph 4.2 mph 79 % 0.0 in
10:24 15.2 °F 11.6 °F 1010.0 in West 3.7 mph 3.7 mph 79 % 0.0 in
10:29 15.8 °F 11.9 °F 1010.0 in SW 3.7 mph 3.7 mph 78 % 0.0 in
10:34 16.4 °F 12.3 °F 1010.0 in SSE 4.2 mph 4.2 mph 77 % 0.0 in
10:39 16.8 °F 12.6 °F 1010.0 in SW 3.7 mph 3.7 mph 76 % 0.0 in
10:44 17.0 °F 12.6 °F 1010.0 in WSW 5.6 mph 5.6 mph 75 % 0.0 in
10:49 16.9 °F 12.4 °F 1010.0 in SSW 9.3 mph 9.3 mph 75 % 0.0 in
10:54 17.6 °F 12.5 °F 1010.0 in SSW 7.4 mph 7.4 mph 72 % 0.0 in
10:59 17.8 °F 12.4 °F 1010.0 in SW 14.8 mph 14.8 mph 71 % 0.0 in
11:04 17.8 °F 12.1 °F 1010.0 in SSW 16.7 mph 16.7 mph 69 % 0.0 in
11:09 17.7 °F 11.3 °F 1010.0 in WSW 11.1 mph 11.1 mph 66 % 0.0 in
11:14 18.0 °F 11.6 °F 1010.0 in SW 13.0 mph 13.0 mph 66 % 0.0 in
11:19 17.8 °F 11.1 °F 1010.0 in SSW 16.7 mph 16.7 mph 65 % 0.0 in
11:24 17.8 °F 10.9 °F 1010.0 in South 16.7 mph 16.7 mph 64 % 0.0 in
11:29 17.5 °F 10.4 °F 1010.0 in SW 20.4 mph 20.4 mph 63 % 0.0 in
11:34 17.5 °F 10.6 °F 1010.0 in SW 18.5 mph 18.5 mph 64 % 0.0 in
11:39 17.5 °F 10.6 °F 1009.0 in SSW 13.0 mph 13.0 mph 64 % 0.0 in
11:44 18.0 °F 11.1 °F 1009.0 in WSW 7.4 mph 7.4 mph 64 % 0.0 in
11:49 18.3 °F 11.4 °F 1009.0 in WSW 9.5 mph 9.5 mph 64 % 0.0 in
11:54 18.7 °F 11.7 °F 1010.0 in SW 9.3 mph 9.3 mph 64 % 0.0 in
11:59 19.0 °F 11.8 °F 1010.0 in SW 7.4 mph 7.4 mph 63 % 0.0 in
12:04 19.0 °F 11.6 °F 1010.0 in SW 11.1 mph 11.1 mph 62 % 0.0 in
12:09 19.3 °F 11.8 °F 1009.0 in South 3.7 mph 3.9 mph 62 % 0.0 in
12:14 19.9 °F 12.4 °F 1009.0 in SW 13.0 mph 13.0 mph 62 % 0.0 in
13:26 21.4 °F 11.1 °F 1008.0 in SW 11.1 mph 11.1 mph 52 % 0.0 in
13:31 21.0 °F 10.5 °F 1008.0 in SW 13.0 mph 13.0 mph 51 % 0.0 in
13:36 20.9 °F 10.4 °F 1008.0 in WSW 22.2 mph 22.2 mph 51 % 0.0 in
13:41 21.0 °F 10.2 °F 1008.0 in SSW 14.8 mph 14.8 mph 50 % 0.0 in
13:46 21.0 °F 10.2 °F 1008.0 in SSW 24.1 mph 24.1 mph 50 % 0.0 in
13:51 21.0 °F 9.9 °F 1007.0 in SSW 25.9 mph 25.9 mph 49 % 0.0 in
13:56 21.1 °F 9.9 °F 1007.0 in SSE 20.4 mph 20.4 mph 49 % 0.0 in
14:01 21.0 °F 9.9 °F 1007.0 in SW 10.0 mph 13.7 mph 49 % 0.0 in
14:06 21.0 °F 9.9 °F 1007.0 in SW 20.4 mph 20.4 mph 49 % 0.0 in
14:11 21.5 °F 10.6 °F 1007.0 in SW 13.0 mph 13.0 mph 50 % 0.0 in
14:16 21.3 °F 10.2 °F 1007.0 in SSW 16.7 mph 16.7 mph 49 % 0.0 in
14:21 21.6 °F 10.1 °F 1007.0 in South 16.4 mph 16.4 mph 48 % 0.0 in
14:26 21.6 °F 10.4 °F 1007.0 in SSW 16.9 mph 16.9 mph 49 % 0.0 in
14:31 21.7 °F 10.2 °F 1007.0 in SW 24.5 mph 24.5 mph 48 % 0.0 in
14:36 21.4 °F 9.9 °F 1006.0 in SW 14.8 mph 14.8 mph 48 % 0.0 in
14:41 21.5 °F 10.0 °F 1006.0 in SSW 13.0 mph 13.0 mph 48 % 0.0 in
14:46 21.5 °F 10.0 °F 1006.0 in WSW 22.2 mph 22.2 mph 48 % 0.0 in
14:51 21.6 °F 10.1 °F 1005.0 in SW 22.2 mph 22.2 mph 48 % 0.0 in
14:56 22.0 °F 10.5 °F 1005.0 in SW 11.1 mph 11.1 mph 48 % 0.0 in
15:01 21.9 °F 10.4 °F 1005.0 in SSW 16.7 mph 16.7 mph 48 % 0.0 in
15:06 21.4 °F 9.6 °F 1006.0 in SW 16.7 mph 16.7 mph 47 % 0.0 in
15:11 21.4 °F 9.6 °F 1006.0 in SW 22.2 mph 22.2 mph 47 % 0.0 in
15:16 21.1 °F 9.3 °F 1006.0 in WSW 22.2 mph 22.2 mph 47 % 0.0 in
15:21 21.0 °F 8.9 °F 1006.0 in SW 33.3 mph 33.3 mph 46 % 0.0 in
15:26 21.0 °F 9.3 °F 1006.0 in SW 25.9 mph 25.9 mph 47 % 0.0 in
15:31 21.0 °F 8.9 °F 1006.0 in WSW 20.1 mph 20.1 mph 46 % 0.0 in
15:36 21.0 °F 9.3 °F 1006.0 in WNW 20.4 mph 20.4 mph 47 % 0.0 in
15:41 21.1 °F 9.3 °F 1006.0 in SW 16.7 mph 16.7 mph 47 % 0.0 in
15:46 21.0 °F 9.3 °F 1006.0 in WSW 16.7 mph 16.7 mph 47 % 0.0 in
15:51 21.3 °F 9.5 °F 1006.0 in SSW 18.5 mph 18.5 mph 47 % 0.0 in
15:56 21.2 °F 9.4 °F 1006.0 in West 13.0 mph 13.0 mph 47 % 0.0 in
16:01 21.3 °F 9.5 °F 1006.0 in SSW 7.4 mph 7.4 mph 47 % 0.0 in
16:06 21.5 °F 9.7 °F 1006.0 in SSW 9.3 mph 9.3 mph 47 % 0.0 in
16:11 21.5 °F 9.7 °F 1006.0 in SSW 11.1 mph 11.1 mph 47 % 0.0 in
16:16 21.1 °F 9.3 °F 1006.0 in WSW 11.1 mph 11.1 mph 47 % 0.0 in
16:21 21.4 °F 9.6 °F 1006.0 in WSW 9.3 mph 9.3 mph 47 % 0.0 in
16:26 21.5 °F 9.7 °F 1006.0 in South 9.3 mph 9.3 mph 47 % 0.0 in
16:31 21.7 °F 10.2 °F 1006.0 in SSW 9.5 mph 9.5 mph 48 % 0.0 in
16:36 21.5 °F 9.7 °F 1005.0 in SW 14.8 mph 14.8 mph 47 % 0.0 in
16:41 21.1 °F 9.0 °F 1005.0 in SW 25.9 mph 25.9 mph 46 % 0.0 in
16:46 21.1 °F 9.0 °F 1005.0 in SW 13.0 mph 13.0 mph 46 % 0.0 in
16:51 21.2 °F 9.1 °F 1005.0 in South 16.7 mph 16.7 mph 46 % 0.0 in
16:56 21.2 °F 8.8 °F 1005.0 in SSE 11.1 mph 11.1 mph 45 % 0.0 in
17:01 21.3 °F 8.9 °F 1005.0 in SSW 13.0 mph 13.0 mph 45 % 0.0 in
17:06 21.2 °F 8.8 °F 1005.0 in SW 9.3 mph 9.7 mph 45 % 0.0 in
17:11 21.1 °F 8.7 °F 1005.0 in SW 13.0 mph 13.0 mph 45 % 0.0 in
17:16 20.9 °F 8.8 °F 1005.0 in South 9.3 mph 9.3 mph 46 % 0.0 in
17:21 20.8 °F 8.8 °F 1003.9 in SSW 11.1 mph 11.1 mph 46 % 0.0 in
17:26 21.0 °F 8.9 °F 1003.9 in WSW 5.6 mph 5.6 mph 46 % 0.0 in
17:31 20.8 °F 9.1 °F 1003.9 in South 9.3 mph 9.3 mph 47 % 0.0 in
17:36 20.4 °F 8.7 °F 1003.9 in SW 9.3 mph 9.3 mph 47 % 0.0 in
17:41 20.1 °F 8.1 °F 1003.9 in South 5.8 mph 6.4 mph 46 % 0.0 in
17:46 19.8 °F 8.2 °F 1003.9 in WSW 9.3 mph 9.3 mph 47 % 0.0 in
17:51 19.6 °F 8.0 °F 1003.9 in SSE 5.6 mph 5.6 mph 47 % 0.0 in
17:56 19.6 °F 8.3 °F 1003.9 in SW 5.6 mph 7.6 mph 48 % 0.0 in
18:01 19.4 °F 8.1 °F 1003.9 in SSW 9.3 mph 9.3 mph 48 % 0.0 in
18:06 19.0 °F 7.7 °F 1003.9 in SW 10.0 mph 10.0 mph 48 % 0.0 in
18:11 18.6 °F 7.7 °F 1003.9 in South 9.3 mph 9.3 mph 49 % 0.0 in
18:16 18.3 °F 7.4 °F 1003.9 in SW 8.7 mph 8.7 mph 49 % 0.0 in
18:21 18.1 °F 7.5 °F 1003.9 in SSW 13.0 mph 13.0 mph 50 % 0.0 in
18:26 17.8 °F 7.2 °F 1003.9 in SW 13.0 mph 13.0 mph 50 % 0.0 in
18:31 17.6 °F 7.1 °F 1003.9 in SSW 13.0 mph 13.0 mph 50 % 0.0 in
18:36 17.4 °F 7.2 °F 1003.9 in SW 14.8 mph 14.8 mph 51 % 0.0 in
18:41 17.1 °F 6.9 °F 1003.9 in South 11.1 mph 11.1 mph 51 % 0.0 in
18:46 16.8 °F 7.2 °F 1003.9 in West 9.3 mph 9.3 mph 53 % 0.0 in
18:51 16.6 °F 7.2 °F 1003.9 in SSW 15.8 mph 15.8 mph 54 % 0.0 in
18:56 16.3 °F 7.5 °F 1003.9 in SW 11.1 mph 11.1 mph 56 % 0.0 in
19:01 16.1 °F 7.6 °F 1003.9 in SW 12.2 mph 12.2 mph 57 % 0.0 in
19:06 15.7 °F 8.2 °F 1005.0 in South 14.8 mph 14.8 mph 61 % 0.0 in
19:11 15.4 °F 8.4 °F 1005.0 in SSW 16.7 mph 16.7 mph 63 % 0.0 in
19:16 15.1 °F 8.8 °F 1005.0 in West 14.8 mph 14.8 mph 66 % 0.0 in
19:21 14.9 °F 8.8 °F 1005.0 in SSW 9.3 mph 9.3 mph 67 % 0.0 in
19:26 14.8 °F 8.9 °F 1005.0 in WSW 14.8 mph 14.8 mph 68 % 0.0 in
19:31 14.7 °F 8.8 °F 1005.0 in SW 14.8 mph 14.8 mph 68 % 0.0 in
19:36 14.7 °F 9.1 °F 1006.0 in WSW 11.1 mph 11.1 mph 69 % 0.0 in
19:41 14.6 °F 9.0 °F 1006.0 in SW 7.4 mph 7.4 mph 69 % 0.0 in
19:46 14.6 °F 9.0 °F 1006.0 in SW 5.6 mph 5.6 mph 69 % 0.0 in
19:51 14.6 °F 9.0 °F 1005.0 in WSW 7.4 mph 7.4 mph 69 % 0.0 in
19:56 14.6 °F 9.4 °F 1005.0 in SSW 4.7 mph 4.7 mph 71 % 0.0 in
20:01 14.6 °F 9.2 °F 1005.0 in SSW 8.7 mph 8.7 mph 70 % 0.0 in
20:06 14.6 °F 9.4 °F 1006.0 in WNW 9.3 mph 9.3 mph 71 % 0.0 in
20:11 14.6 °F 9.4 °F 1006.0 in SW 5.6 mph 5.6 mph 71 % 0.0 in
20:16 14.5 °F 9.3 °F 1006.0 in WSW 5.6 mph 5.6 mph 71 % 0.0 in
20:21 14.5 °F 9.3 °F 1006.0 in SW 5.6 mph 5.6 mph 71 % 0.0 in
20:26 14.5 °F 9.5 °F 1006.0 in WSW 3.7 mph 3.7 mph 72 % 0.0 in
20:31 14.4 °F 9.6 °F 1006.0 in SSW 5.3 mph 5.3 mph 73 % 0.0 in
20:36 14.3 °F 9.3 °F 1006.0 in West 9.3 mph 9.3 mph 72 % 0.0 in
20:41 14.3 °F 9.5 °F 1006.0 in SW 3.7 mph 3.7 mph 73 % 0.0 in
20:46 14.3 °F 9.5 °F 1006.0 in WSW 3.7 mph 3.9 mph 73 % 0.0 in
20:51 14.3 °F 9.7 °F 1006.0 in WSW 3.7 mph 3.7 mph 74 % 0.0 in
20:56 14.3 °F 9.7 °F 1006.0 in WSW 3.7 mph 3.7 mph 74 % 0.0 in
21:01 14.2 °F 9.8 °F 1006.0 in SW 2.3 mph 2.3 mph 75 % 0.0 in
21:06 14.1 °F 9.9 °F 1006.0 in North 1.9 mph   76 % 0.0 in
21:11 14.1 °F 9.9 °F 1006.0 in North 1.9 mph   76 % 0.0 in
21:16 14.1 °F 10.1 °F 1006.0 in NNE 3.7 mph 3.7 mph 77 % 0.0 in
21:21 13.9 °F 10.1 °F 1005.0 in NNE 5.0 mph 5.0 mph 78 % 0.0 in
21:26 13.8 °F 10.1 °F 1005.0 in NNE 3.5 mph 3.5 mph 78 % 0.0 in
21:31 13.8 °F 10.1 °F 1005.0 in ENE 3.7 mph 3.7 mph 78 % 0.0 in
21:36 13.7 °F 10.1 °F 1003.9 in ENE 3.7 mph   79 % 0.0 in
21:41 13.7 °F 10.1 °F 1003.9 in Calm     79 % 0.0 in
21:46 13.7 °F 9.9 °F 1003.9 in Calm     78 % 0.0 in
21:51 13.7 °F 9.9 °F 1003.9 in West 2.6 mph 2.6 mph 78 % 0.0 in
21:56 13.6 °F 9.8 °F 1003.9 in WSW 3.7 mph 3.7 mph 78 % 0.0 in
22:01 13.6 °F 10.0 °F 1003.9 in Calm     79 % 0.0 in
22:06 13.5 °F 10.1 °F 1003.9 in Calm     80 % 0.0 in
22:11 13.5 °F 10.1 °F 1003.9 in Calm     80 % 0.0 in
22:16 13.5 °F 10.1 °F 1003.9 in Calm     80 % 0.0 in
22:21 13.4 °F 10.0 °F 1003.9 in WSW 1.9 mph   80 % 0.0 in
22:26 13.3 °F 9.9 °F 1003.9 in WSW 1.9 mph   80 % 0.0 in
22:31 13.2 °F 9.8 °F 1003.9 in WSW 2.3 mph   80 % 0.0 in
22:36 13.1 °F 9.7 °F 1002.9 in Calm     80 % 0.0 in
22:37 13.1 °F 9.7 °F 1002.9 in Calm     80 % 0.0 in
22:42 13.1 °F 9.9 °F 1002.9 in Calm     81 % 0.0 in
22:47 13.1 °F 9.9 °F 1002.9 in Calm     81 % 0.0 in
22:52 13.0 °F 9.8 °F 1003.9 in Calm     81 % 0.0 in
22:57 13.0 °F 9.8 °F 1003.9 in Calm     81 % 0.0 in
23:02 13.0 °F 9.8 °F 1003.9 in Calm     81 % 0.0 in
23:07 13.0 °F 10.0 °F 1002.9 in NNE 1.9 mph   82 % 0.0 in
23:12 12.9 °F 9.7 °F 1002.9 in SW 3.7 mph 3.7 mph 81 % 0.0 in
23:17 12.7 °F 9.5 °F 1002.9 in Calm     81 % 0.0 in
23:22 12.6 °F 9.6 °F 1003.9 in Calm     82 % 0.0 in
23:27 12.5 °F 9.5 °F 1003.9 in WSW 3.5 mph 3.5 mph 82 % 0.0 in
23:32 12.4 °F 9.2 °F 1003.9 in SW 3.7 mph 3.7 mph 81 % 0.0 in
23:37 12.4 °F 9.2 °F 1003.9 in West 3.7 mph 3.7 mph 81 % 0.0 in
23:42 12.3 °F 9.3 °F 1003.9 in SW 2.6 mph 2.6 mph 82 % 0.0 in
23:47 12.3 °F 9.3 °F 1003.9 in WSW 3.7 mph 3.7 mph 82 % 0.0 in
23:52 12.3 °F 9.3 °F 1003.9 in Calm     82 % 0.0 in
23:57 12.3 °F 9.5 °F 1003.9 in Calm     83 % 0.0 in
Meteo Sesrovires
Elogis d' Weather Underground - 1.75 mb

Guio original per  Jim McMurry - jmcmurry@mwt.net Adaptat per a la plantilla per  Wim van der Kuil - Leuven-Template.eu

Trobareu la nostra informacio del temps tambe a:

Weather Underground

AWEKAS